sensor_id;sensor_type;location;lat;lon;timestamp;temperature;humidity
41304;DHT22;51002;51.462;7.218;2023-05-17T00:00:07;11.20;74.60
41304;DHT22;51002;51.462;7.218;2023-05-17T00:02:35;11.20;76.10
41304;DHT22;51002;51.462;7.218;2023-05-17T00:05:01;11.20;75.80
41304;DHT22;51002;51.462;7.218;2023-05-17T00:07:29;11.10;74.80
41304;DHT22;51002;51.462;7.218;2023-05-17T00:09:54;11.00;75.30
41304;DHT22;51002;51.462;7.218;2023-05-17T00:12:20;11.00;76.80
41304;DHT22;51002;51.462;7.218;2023-05-17T00:14:45;11.00;75.50
41304;DHT22;51002;51.462;7.218;2023-05-17T00:17:11;10.80;74.10
41304;DHT22;51002;51.462;7.218;2023-05-17T00:19:36;11.00;76.30
41304;DHT22;51002;51.462;7.218;2023-05-17T00:22:04;11.00;76.80
41304;DHT22;51002;51.462;7.218;2023-05-17T00:24:30;11.00;76.50
41304;DHT22;51002;51.462;7.218;2023-05-17T00:26:55;10.90;75.70
41304;DHT22;51002;51.462;7.218;2023-05-17T00:29:21;10.90;76.10
41304;DHT22;51002;51.462;7.218;2023-05-17T00:31:46;10.80;76.70
41304;DHT22;51002;51.462;7.218;2023-05-17T00:34:11;10.80;76.80
41304;DHT22;51002;51.462;7.218;2023-05-17T00:36:37;10.80;75.00
41304;DHT22;51002;51.462;7.218;2023-05-17T00:39:02;10.80;76.00
41304;DHT22;51002;51.462;7.218;2023-05-17T00:41:30;10.70;75.30
41304;DHT22;51002;51.462;7.218;2023-05-17T00:43:58;10.80;76.40
41304;DHT22;51002;51.462;7.218;2023-05-17T00:46:24;10.70;76.20
41304;DHT22;51002;51.462;7.218;2023-05-17T00:48:50;10.70;76.90
41304;DHT22;51002;51.462;7.218;2023-05-17T00:51:18;10.70;77.60
41304;DHT22;51002;51.462;7.218;2023-05-17T00:53:44;10.70;76.00
41304;DHT22;51002;51.462;7.218;2023-05-17T00:56:10;10.70;76.50
41304;DHT22;51002;51.462;7.218;2023-05-17T00:58:38;10.70;77.10
41304;DHT22;51002;51.462;7.218;2023-05-17T01:01:05;10.70;76.50
41304;DHT22;51002;51.462;7.218;2023-05-17T01:03:31;10.70;76.90
41304;DHT22;51002;51.462;7.218;2023-05-17T01:05:56;10.70;76.80
41304;DHT22;51002;51.462;7.218;2023-05-17T01:08:22;10.60;75.80
41304;DHT22;51002;51.462;7.218;2023-05-17T01:13:21;10.60;76.50
41304;DHT22;51002;51.462;7.218;2023-05-17T01:15:52;10.60;77.70
41304;DHT22;51002;51.462;7.218;2023-05-17T01:18:29;10.50;77.30
41304;DHT22;51002;51.462;7.218;2023-05-17T01:21:00;10.60;77.80
41304;DHT22;51002;51.462;7.218;2023-05-17T01:23:45;10.50;76.90
41304;DHT22;51002;51.462;7.218;2023-05-17T01:26:59;10.50;77.30
41304;DHT22;51002;51.462;7.218;2023-05-17T01:29:07;10.60;77.80
41304;DHT22;51002;51.462;7.218;2023-05-17T01:31:35;10.50;78.30
41304;DHT22;51002;51.462;7.218;2023-05-17T01:34:07;10.60;78.30
41304;DHT22;51002;51.462;7.218;2023-05-17T01:36:35;10.50;77.80
41304;DHT22;51002;51.462;7.218;2023-05-17T01:39:01;10.50;78.60
41304;DHT22;51002;51.462;7.218;2023-05-17T01:41:31;10.50;78.30
41304;DHT22;51002;51.462;7.218;2023-05-17T01:44:04;10.40;77.70
41304;DHT22;51002;51.462;7.218;2023-05-17T01:46:35;10.50;77.70
41304;DHT22;51002;51.462;7.218;2023-05-17T01:54:35;10.30;78.70
41304;DHT22;51002;51.462;7.218;2023-05-17T01:57:01;10.30;77.50
41304;DHT22;51002;51.462;7.218;2023-05-17T01:59:29;10.30;77.70
41304;DHT22;51002;51.462;7.218;2023-05-17T02:01:59;10.30;77.50
41304;DHT22;51002;51.462;7.218;2023-05-17T02:04:30;10.30;78.30
41304;DHT22;51002;51.462;7.218;2023-05-17T02:06:56;10.30;77.90
41304;DHT22;51002;51.462;7.218;2023-05-17T02:09:21;10.30;78.60
41304;DHT22;51002;51.462;7.218;2023-05-17T02:11:47;10.30;78.60
41304;DHT22;51002;51.462;7.218;2023-05-17T02:14:12;10.30;78.70
41304;DHT22;51002;51.462;7.218;2023-05-17T02:16:40;10.20;77.50
41304;DHT22;51002;51.462;7.218;2023-05-17T02:19:06;10.10;78.30
41304;DHT22;51002;51.462;7.218;2023-05-17T02:21:35;10.20;77.90
41304;DHT22;51002;51.462;7.218;2023-05-17T02:24:01;10.20;78.70
41304;DHT22;51002;51.462;7.218;2023-05-17T02:26:26;10.20;78.80
41304;DHT22;51002;51.462;7.218;2023-05-17T02:28:56;10.20;79.70
41304;DHT22;51002;51.462;7.218;2023-05-17T02:31:21;10.30;78.60
41304;DHT22;51002;51.462;7.218;2023-05-17T02:33:47;10.00;77.70
41304;DHT22;51002;51.462;7.218;2023-05-17T02:36:12;10.10;79.80
41304;DHT22;51002;51.462;7.218;2023-05-17T02:38:38;10.20;78.90
41304;DHT22;51002;51.462;7.218;2023-05-17T02:41:05;10.00;78.70
41304;DHT22;51002;51.462;7.218;2023-05-17T02:43:31;10.00;78.80
41304;DHT22;51002;51.462;7.218;2023-05-17T02:45:59;10.00;79.60
41304;DHT22;51002;51.462;7.218;2023-05-17T02:48:24;10.10;80.00
41304;DHT22;51002;51.462;7.218;2023-05-17T02:50:50;10.10;79.30
41304;DHT22;51002;51.462;7.218;2023-05-17T02:53:15;10.10;79.20
41304;DHT22;51002;51.462;7.218;2023-05-17T02:55:41;10.00;78.50
41304;DHT22;51002;51.462;7.218;2023-05-17T02:58:09;10.00;78.50
41304;DHT22;51002;51.462;7.218;2023-05-17T03:00:34;10.10;79.60
41304;DHT22;51002;51.462;7.218;2023-05-17T03:03:00;10.10;79.80
41304;DHT22;51002;51.462;7.218;2023-05-17T03:05:28;10.10;79.30
41304;DHT22;51002;51.462;7.218;2023-05-17T03:07:53;10.20;79.10
41304;DHT22;51002;51.462;7.218;2023-05-17T03:10:19;10.20;79.20
41304;DHT22;51002;51.462;7.218;2023-05-17T03:12:45;10.20;80.10
41304;DHT22;51002;51.462;7.218;2023-05-17T03:15:10;10.00;78.30
41304;DHT22;51002;51.462;7.218;2023-05-17T03:17:38;10.10;78.90
41304;DHT22;51002;51.462;7.218;2023-05-17T03:20:04;10.20;78.90
41304;DHT22;51002;51.462;7.218;2023-05-17T03:22:31;10.30;80.00
41304;DHT22;51002;51.462;7.218;2023-05-17T03:24:59;10.20;79.40
41304;DHT22;51002;51.462;7.218;2023-05-17T03:27:25;10.20;79.60
41304;DHT22;51002;51.462;7.218;2023-05-17T03:29:50;10.20;79.30
41304;DHT22;51002;51.462;7.218;2023-05-17T03:32:16;10.30;80.50
41304;DHT22;51002;51.462;7.218;2023-05-17T03:34:41;10.30;80.60
41304;DHT22;51002;51.462;7.218;2023-05-17T03:37:07;10.40;80.80
41304;DHT22;51002;51.462;7.218;2023-05-17T03:39:33;10.20;78.60
41304;DHT22;51002;51.462;7.218;2023-05-17T03:41:58;10.30;80.30
41304;DHT22;51002;51.462;7.218;2023-05-17T03:44:24;10.40;80.00
41304;DHT22;51002;51.462;7.218;2023-05-17T03:46:49;10.50;80.90
41304;DHT22;51002;51.462;7.218;2023-05-17T03:49:17;10.50;81.00
41304;DHT22;51002;51.462;7.218;2023-05-17T03:51:42;10.30;79.30
41304;DHT22;51002;51.462;7.218;2023-05-17T03:54:09;10.50;80.60
41304;DHT22;51002;51.462;7.218;2023-05-17T03:56:35;10.50;79.80
41304;DHT22;51002;51.462;7.218;2023-05-17T03:59:00;10.50;79.50
41304;DHT22;51002;51.462;7.218;2023-05-17T04:01:26;10.60;80.30
41304;DHT22;51002;51.462;7.218;2023-05-17T04:03:51;10.60;80.90
41304;DHT22;51002;51.462;7.218;2023-05-17T04:06:17;10.70;81.20
41304;DHT22;51002;51.462;7.218;2023-05-17T04:08:42;10.60;80.50
41304;DHT22;51002;51.462;7.218;2023-05-17T04:11:10;10.70;81.90
41304;DHT22;51002;51.462;7.218;2023-05-17T04:13:38;10.70;80.60
41304;DHT22;51002;51.462;7.218;2023-05-17T04:16:04;10.60;80.60
41304;DHT22;51002;51.462;7.218;2023-05-17T04:18:31;10.70;80.90
41304;DHT22;51002;51.462;7.218;2023-05-17T04:20:57;10.70;81.20
41304;DHT22;51002;51.462;7.218;2023-05-17T04:23:22;10.60;80.50
41304;DHT22;51002;51.462;7.218;2023-05-17T04:25:48;10.70;81.00
41304;DHT22;51002;51.462;7.218;2023-05-17T04:28:13;10.70;81.20
41304;DHT22;51002;51.462;7.218;2023-05-17T04:30:41;10.60;80.50
41304;DHT22;51002;51.462;7.218;2023-05-17T04:33:07;10.70;80.50
41304;DHT22;51002;51.462;7.218;2023-05-17T04:35:33;10.80;81.40
41304;DHT22;51002;51.462;7.218;2023-05-17T04:37:58;10.80;80.50
41304;DHT22;51002;51.462;7.218;2023-05-17T04:40:26;10.70;80.20
41304;DHT22;51002;51.462;7.218;2023-05-17T04:42:51;10.70;80.50
41304;DHT22;51002;51.462;7.218;2023-05-17T04:45:17;10.80;80.50
41304;DHT22;51002;51.462;7.218;2023-05-17T04:47:42;10.70;80.70
41304;DHT22;51002;51.462;7.218;2023-05-17T04:50:08;10.60;81.00
41304;DHT22;51002;51.462;7.218;2023-05-17T04:52:36;10.70;80.40
41304;DHT22;51002;51.462;7.218;2023-05-17T04:55:04;10.80;80.40
41304;DHT22;51002;51.462;7.218;2023-05-17T04:57:30;10.90;81.20
41304;DHT22;51002;51.462;7.218;2023-05-17T04:59:58;10.90;81.20
41304;DHT22;51002;51.462;7.218;2023-05-17T05:02:25;10.90;81.10
41304;DHT22;51002;51.462;7.218;2023-05-17T05:04:55;10.80;80.20
41304;DHT22;51002;51.462;7.218;2023-05-17T05:07:20;10.80;80.40
41304;DHT22;51002;51.462;7.218;2023-05-17T05:09:46;10.70;80.50
41304;DHT22;51002;51.462;7.218;2023-05-17T05:12:14;10.80;80.40
41304;DHT22;51002;51.462;7.218;2023-05-17T05:14:40;11.00;80.50
41304;DHT22;51002;51.462;7.218;2023-05-17T05:17:06;10.80;80.50
41304;DHT22;51002;51.462;7.218;2023-05-17T05:19:33;10.90;80.30
41304;DHT22;51002;51.462;7.218;2023-05-17T05:21:59;11.10;80.60
41304;DHT22;51002;51.462;7.218;2023-05-17T05:24:25;11.10;79.10
41304;DHT22;51002;51.462;7.218;2023-05-17T05:26:53;11.20;80.20
41304;DHT22;51002;51.462;7.218;2023-05-17T05:29:18;11.20;80.00
41304;DHT22;51002;51.462;7.218;2023-05-17T05:31:44;11.10;79.50
41304;DHT22;51002;51.462;7.218;2023-05-17T05:34:09;11.10;79.60
41304;DHT22;51002;51.462;7.218;2023-05-17T05:36:37;11.10;79.50
41304;DHT22;51002;51.462;7.218;2023-05-17T05:39:05;11.00;79.00
41304;DHT22;51002;51.462;7.218;2023-05-17T05:41:33;11.10;80.10
41304;DHT22;51002;51.462;7.218;2023-05-17T05:44:01;11.20;80.50
41304;DHT22;51002;51.462;7.218;2023-05-17T05:46:26;11.10;80.40
41304;DHT22;51002;51.462;7.218;2023-05-17T05:48:52;11.10;78.00
41304;DHT22;51002;51.462;7.218;2023-05-17T05:51:18;10.90;79.10
41304;DHT22;51002;51.462;7.218;2023-05-17T05:53:43;11.10;80.50
41304;DHT22;51002;51.462;7.218;2023-05-17T05:56:09;11.00;77.60
41304;DHT22;51002;51.462;7.218;2023-05-17T05:58:35;11.10;77.90
41304;DHT22;51002;51.462;7.218;2023-05-17T06:01:01;11.10;78.50
41304;DHT22;51002;51.462;7.218;2023-05-17T06:03:27;11.10;77.20
41304;DHT22;51002;51.462;7.218;2023-05-17T06:05:54;11.20;76.40
41304;DHT22;51002;51.462;7.218;2023-05-17T06:08:20;11.10;77.00
41304;DHT22;51002;51.462;7.218;2023-05-17T06:10:45;11.00;76.00
41304;DHT22;51002;51.462;7.218;2023-05-17T06:13:13;11.20;77.60
41304;DHT22;51002;51.462;7.218;2023-05-17T06:15:39;11.20;74.10
41304;DHT22;51002;51.462;7.218;2023-05-17T06:18:07;11.00;71.20
41304;DHT22;51002;51.462;7.218;2023-05-17T06:20:32;10.90;70.60
41304;DHT22;51002;51.462;7.218;2023-05-17T06:22:58;11.00;72.80
41304;DHT22;51002;51.462;7.218;2023-05-17T06:25:23;11.10;71.80
41304;DHT22;51002;51.462;7.218;2023-05-17T06:27:51;11.00;72.40
41304;DHT22;51002;51.462;7.218;2023-05-17T06:30:16;11.20;72.20
41304;DHT22;51002;51.462;7.218;2023-05-17T06:32:42;11.30;73.00
41304;DHT22;51002;51.462;7.218;2023-05-17T06:35:10;11.30;74.20
41304;DHT22;51002;51.462;7.218;2023-05-17T06:37:38;11.40;73.10
41304;DHT22;51002;51.462;7.218;2023-05-17T06:40:04;11.40;73.80
41304;DHT22;51002;51.462;7.218;2023-05-17T06:42:31;11.30;69.70
41304;DHT22;51002;51.462;7.218;2023-05-17T06:44:59;11.50;71.30
41304;DHT22;51002;51.462;7.218;2023-05-17T06:47:25;11.40;69.80
41304;DHT22;51002;51.462;7.218;2023-05-17T06:49:53;11.50;69.60
41304;DHT22;51002;51.462;7.218;2023-05-17T06:52:18;11.90;71.50
41304;DHT22;51002;51.462;7.218;2023-05-17T06:54:46;12.00;67.30
41304;DHT22;51002;51.462;7.218;2023-05-17T06:57:11;12.10;66.70
41304;DHT22;51002;51.462;7.218;2023-05-17T06:59:37;12.20;65.80
41304;DHT22;51002;51.462;7.218;2023-05-17T07:02:03;12.10;68.00
41304;DHT22;51002;51.462;7.218;2023-05-17T07:04:28;12.20;66.10
41304;DHT22;51002;51.462;7.218;2023-05-17T07:06:54;12.10;68.50
41304;DHT22;51002;51.462;7.218;2023-05-17T07:09:19;12.10;66.50
41304;DHT22;51002;51.462;7.218;2023-05-17T07:11:45;12.20;65.60
41304;DHT22;51002;51.462;7.218;2023-05-17T07:14:11;12.20;66.50
41304;DHT22;51002;51.462;7.218;2023-05-17T07:16:39;12.30;64.50
41304;DHT22;51002;51.462;7.218;2023-05-17T07:19:04;12.40;62.10
41304;DHT22;51002;51.462;7.218;2023-05-17T07:21:30;12.70;69.30
41304;DHT22;51002;51.462;7.218;2023-05-17T07:23:58;12.40;61.40
41304;DHT22;51002;51.462;7.218;2023-05-17T07:26:24;12.30;62.70
41304;DHT22;51002;51.462;7.218;2023-05-17T07:28:49;12.50;62.00
41304;DHT22;51002;51.462;7.218;2023-05-17T07:31:16;12.60;65.60
41304;DHT22;51002;51.462;7.218;2023-05-17T07:33:43;12.50;67.10
41304;DHT22;51002;51.462;7.218;2023-05-17T07:36:09;12.40;67.00
41304;DHT22;51002;51.462;7.218;2023-05-17T07:38:35;12.30;64.50
41304;DHT22;51002;51.462;7.218;2023-05-17T07:41:00;12.60;65.20
41304;DHT22;51002;51.462;7.218;2023-05-17T07:43:26;12.30;59.50
41304;DHT22;51002;51.462;7.218;2023-05-17T07:45:54;12.50;59.90
41304;DHT22;51002;51.462;7.218;2023-05-17T07:48:19;12.60;64.00
41304;DHT22;51002;51.462;7.218;2023-05-17T07:50:50;12.60;60.10
41304;DHT22;51002;51.462;7.218;2023-05-17T07:53:15;12.20;59.80
41304;DHT22;51002;51.462;7.218;2023-05-17T07:55:41;12.20;60.70
41304;DHT22;51002;51.462;7.218;2023-05-17T07:58:08;12.20;61.00
41304;DHT22;51002;51.462;7.218;2023-05-17T08:00:37;12.30;60.40
41304;DHT22;51002;51.462;7.218;2023-05-17T08:03:02;12.50;59.30
41304;DHT22;51002;51.462;7.218;2023-05-17T08:05:30;12.70;60.20
41304;DHT22;51002;51.462;7.218;2023-05-17T08:07:55;12.80;57.30
41304;DHT22;51002;51.462;7.218;2023-05-17T08:10:24;13.10;57.10
41304;DHT22;51002;51.462;7.218;2023-05-17T08:12:50;13.20;56.60
41304;DHT22;51002;51.462;7.218;2023-05-17T08:15:15;13.20;53.90
41304;DHT22;51002;51.462;7.218;2023-05-17T08:17:43;13.50;55.00
41304;DHT22;51002;51.462;7.218;2023-05-17T08:20:09;13.50;54.10
41304;DHT22;51002;51.462;7.218;2023-05-17T08:22:37;13.90;56.70
41304;DHT22;51002;51.462;7.218;2023-05-17T08:25:02;14.00;58.20
41304;DHT22;51002;51.462;7.218;2023-05-17T08:27:28;14.20;56.40
41304;DHT22;51002;51.462;7.218;2023-05-17T08:29:55;14.50;50.60
41304;DHT22;51002;51.462;7.218;2023-05-17T08:32:22;14.30;48.20
41304;DHT22;51002;51.462;7.218;2023-05-17T08:34:48;14.30;49.70
41304;DHT22;51002;51.462;7.218;2023-05-17T08:37:13;14.50;53.20
41304;DHT22;51002;51.462;7.218;2023-05-17T08:39:39;14.20;53.50
41304;DHT22;51002;51.462;7.218;2023-05-17T08:42:07;14.40;56.60
41304;DHT22;51002;51.462;7.218;2023-05-17T08:44:32;14.40;58.30
41304;DHT22;51002;51.462;7.218;2023-05-17T08:46:58;14.20;53.20
41304;DHT22;51002;51.462;7.218;2023-05-17T08:49:26;14.30;53.30
41304;DHT22;51002;51.462;7.218;2023-05-17T08:51:53;14.70;55.90
41304;DHT22;51002;51.462;7.218;2023-05-17T08:54:18;15.10;58.30
41304;DHT22;51002;51.462;7.218;2023-05-17T08:56:44;15.40;50.80
41304;DHT22;51002;51.462;7.218;2023-05-17T08:59:11;15.70;49.80
41304;DHT22;51002;51.462;7.218;2023-05-17T09:01:40;15.00;47.30
41304;DHT22;51002;51.462;7.218;2023-05-17T09:04:08;14.70;48.30
41304;DHT22;51002;51.462;7.218;2023-05-17T09:06:36;15.30;51.80
41304;DHT22;51002;51.462;7.218;2023-05-17T09:09:01;15.00;49.10
41304;DHT22;51002;51.462;7.218;2023-05-17T09:11:28;15.50;50.70
41304;DHT22;51002;51.462;7.218;2023-05-17T09:13:57;17.50;47.90
41304;DHT22;51002;51.462;7.218;2023-05-17T09:16:22;19.10;47.60
41304;DHT22;51002;51.462;7.218;2023-05-17T09:18:55;19.40;42.20
41304;DHT22;51002;51.462;7.218;2023-05-17T09:21:26;20.20;37.50
41304;DHT22;51002;51.462;7.218;2023-05-17T09:23:52;20.60;41.70
41304;DHT22;51002;51.462;7.218;2023-05-17T09:26:18;19.80;43.70
41304;DHT22;51002;51.462;7.218;2023-05-17T09:28:43;19.20;40.20
41304;DHT22;51002;51.462;7.218;2023-05-17T09:31:09;18.40;44.90
41304;DHT22;51002;51.462;7.218;2023-05-17T09:33:43;18.70;47.00
41304;DHT22;51002;51.462;7.218;2023-05-17T09:36:16;20.50;43.40
41304;DHT22;51002;51.462;7.218;2023-05-17T09:38:44;20.50;39.80
41304;DHT22;51002;51.462;7.218;2023-05-17T09:41:16;19.30;40.10
41304;DHT22;51002;51.462;7.218;2023-05-17T09:43:46;19.30;42.30
41304;DHT22;51002;51.462;7.218;2023-05-17T09:46:11;19.20;44.60
41304;DHT22;51002;51.462;7.218;2023-05-17T09:48:37;19.20;38.60
41304;DHT22;51002;51.462;7.218;2023-05-17T09:51:02;19.00;42.20
41304;DHT22;51002;51.462;7.218;2023-05-17T09:53:33;18.70;42.10
41304;DHT22;51002;51.462;7.218;2023-05-17T09:56:04;18.70;41.70
41304;DHT22;51002;51.462;7.218;2023-05-17T09:58:32;18.90;50.50
41304;DHT22;51002;51.462;7.218;2023-05-17T10:00:59;19.50;42.00
41304;DHT22;51002;51.462;7.218;2023-05-17T10:03:26;20.30;41.40
41304;DHT22;51002;51.462;7.218;2023-05-17T10:06:00;19.70;40.70
41304;DHT22;51002;51.462;7.218;2023-05-17T10:08:28;20.60;43.30
41304;DHT22;51002;51.462;7.218;2023-05-17T10:10:54;20.60;36.00
41304;DHT22;51002;51.462;7.218;2023-05-17T10:13:21;19.30;37.00
41304;DHT22;51002;51.462;7.218;2023-05-17T10:15:49;19.20;39.20
41304;DHT22;51002;51.462;7.218;2023-05-17T10:18:15;18.90;38.20
41304;DHT22;51002;51.462;7.218;2023-05-17T10:20:44;19.60;43.20
41304;DHT22;51002;51.462;7.218;2023-05-17T10:23:10;20.10;45.40
41304;DHT22;51002;51.462;7.218;2023-05-17T10:25:36;19.60;39.40
41304;DHT22;51002;51.462;7.218;2023-05-17T10:28:05;18.70;39.30
41304;DHT22;51002;51.462;7.218;2023-05-17T10:30:32;19.20;42.70
41304;DHT22;51002;51.462;7.218;2023-05-17T10:32:58;19.30;41.20
41304;DHT22;51002;51.462;7.218;2023-05-17T10:35:25;19.00;44.60
41304;DHT22;51002;51.462;7.218;2023-05-17T10:37:51;19.20;42.70
41304;DHT22;51002;51.462;7.218;2023-05-17T10:40:16;18.50;40.30
41304;DHT22;51002;51.462;7.218;2023-05-17T10:42:46;17.80;41.50
41304;DHT22;51002;51.462;7.218;2023-05-17T10:45:17;18.10;44.80
41304;DHT22;51002;51.462;7.218;2023-05-17T10:47:44;18.50;42.50
41304;DHT22;51002;51.462;7.218;2023-05-17T10:50:10;18.30;39.20
41304;DHT22;51002;51.462;7.218;2023-05-17T10:52:38;18.10;38.50
41304;DHT22;51002;51.462;7.218;2023-05-17T10:55:03;17.30;40.30
41304;DHT22;51002;51.462;7.218;2023-05-17T10:59:58;17.70;41.20
41304;DHT22;51002;51.462;7.218;2023-05-17T11:02:27;17.90;42.70
41304;DHT22;51002;51.462;7.218;2023-05-17T11:04:53;18.20;41.80
41304;DHT22;51002;51.462;7.218;2023-05-17T11:07:21;17.80;41.90
41304;DHT22;51002;51.462;7.218;2023-05-17T11:12:14;17.10;41.40
41304;DHT22;51002;51.462;7.218;2023-05-17T11:17:15;17.20;41.70
41304;DHT22;51002;51.462;7.218;2023-05-17T11:22:22;17.40;42.50
41304;DHT22;51002;51.462;7.218;2023-05-17T11:24:49;17.10;39.40
41304;DHT22;51002;51.462;7.218;2023-05-17T11:27:18;17.20;41.30
41304;DHT22;51002;51.462;7.218;2023-05-17T11:29:54;17.30;41.70
41304;DHT22;51002;51.462;7.218;2023-05-17T11:32:31;17.50;44.00
41304;DHT22;51002;51.462;7.218;2023-05-17T11:34:59;17.20;41.40
41304;DHT22;51002;51.462;7.218;2023-05-17T11:37:25;16.70;40.10
41304;DHT22;51002;51.462;7.218;2023-05-17T11:40:04;16.60;41.60
41304;DHT22;51002;51.462;7.218;2023-05-17T11:42:30;16.80;40.50
41304;DHT22;51002;51.462;7.218;2023-05-17T11:44:56;16.60;38.30
41304;DHT22;51002;51.462;7.218;2023-05-17T11:47:22;16.70;41.00
41304;DHT22;51002;51.462;7.218;2023-05-17T11:49:50;16.50;40.60
41304;DHT22;51002;51.462;7.218;2023-05-17T11:52:17;16.60;42.90
41304;DHT22;51002;51.462;7.218;2023-05-17T11:54:45;16.50;39.30
41304;DHT22;51002;51.462;7.218;2023-05-17T11:57:13;16.40;40.70
41304;DHT22;51002;51.462;7.218;2023-05-17T11:59:41;16.70;42.00
41304;DHT22;51002;51.462;7.218;2023-05-17T12:02:07;16.80;43.40
41304;DHT22;51002;51.462;7.218;2023-05-17T12:04:36;16.80;45.30
41304;DHT22;51002;51.462;7.218;2023-05-17T12:07:02;16.80;40.80
41304;DHT22;51002;51.462;7.218;2023-05-17T12:09:28;16.70;39.70
41304;DHT22;51002;51.462;7.218;2023-05-17T12:11:56;16.90;40.10
41304;DHT22;51002;51.462;7.218;2023-05-17T12:14:24;17.00;39.30
41304;DHT22;51002;51.462;7.218;2023-05-17T12:16:52;16.60;38.60
41304;DHT22;51002;51.462;7.218;2023-05-17T12:19:20;16.70;41.00
41304;DHT22;51002;51.462;7.218;2023-05-17T12:21:47;16.40;41.80
41304;DHT22;51002;51.462;7.218;2023-05-17T12:24:15;16.30;43.30
41304;DHT22;51002;51.462;7.218;2023-05-17T12:26:41;16.30;43.40
41304;DHT22;51002;51.462;7.218;2023-05-17T12:29:08;16.40;42.80
41304;DHT22;51002;51.462;7.218;2023-05-17T12:31:38;16.30;40.70
41304;DHT22;51002;51.462;7.218;2023-05-17T12:34:04;16.70;42.30
41304;DHT22;51002;51.462;7.218;2023-05-17T12:36:30;16.70;41.50
41304;DHT22;51002;51.462;7.218;2023-05-17T12:38:57;16.70;40.50
41304;DHT22;51002;51.462;7.218;2023-05-17T12:41:24;16.70;44.60
41304;DHT22;51002;51.462;7.218;2023-05-17T12:43:50;16.70;45.30
41304;DHT22;51002;51.462;7.218;2023-05-17T12:46:21;16.80;42.00
41304;DHT22;51002;51.462;7.218;2023-05-17T12:48:48;16.70;41.20
41304;DHT22;51002;51.462;7.218;2023-05-17T12:51:14;16.60;41.20
41304;DHT22;51002;51.462;7.218;2023-05-17T12:53:43;16.30;39.60
41304;DHT22;51002;51.462;7.218;2023-05-17T12:56:16;16.30;42.30
41304;DHT22;51002;51.462;7.218;2023-05-17T12:58:42;16.40;42.00
41304;DHT22;51002;51.462;7.218;2023-05-17T13:01:07;16.70;44.50
41304;DHT22;51002;51.462;7.218;2023-05-17T13:03:38;16.70;39.90
41304;DHT22;51002;51.462;7.218;2023-05-17T13:06:07;16.60;39.90
41304;DHT22;51002;51.462;7.218;2023-05-17T13:08:34;16.60;44.70
41304;DHT22;51002;51.462;7.218;2023-05-17T13:11:06;16.50;43.20
41304;DHT22;51002;51.462;7.218;2023-05-17T13:13:32;16.30;41.50
41304;DHT22;51002;51.462;7.218;2023-05-17T13:15:58;16.20;44.00
41304;DHT22;51002;51.462;7.218;2023-05-17T13:18:23;16.20;42.20
41304;DHT22;51002;51.462;7.218;2023-05-17T13:20:51;16.10;42.50
41304;DHT22;51002;51.462;7.218;2023-05-17T13:23:17;16.00;46.30
41304;DHT22;51002;51.462;7.218;2023-05-17T13:25:42;16.10;41.50
41304;DHT22;51002;51.462;7.218;2023-05-17T13:28:10;15.90;42.10
41304;DHT22;51002;51.462;7.218;2023-05-17T13:30:37;16.30;44.90
41304;DHT22;51002;51.462;7.218;2023-05-17T13:33:10;16.70;43.60
41304;DHT22;51002;51.462;7.218;2023-05-17T13:35:35;16.80;44.00
41304;DHT22;51002;51.462;7.218;2023-05-17T13:38:04;17.00;42.20
41304;DHT22;51002;51.462;7.218;2023-05-17T13:40:32;16.90;41.70
41304;DHT22;51002;51.462;7.218;2023-05-17T13:42:57;16.70;40.80
41304;DHT22;51002;51.462;7.218;2023-05-17T13:45:23;16.30;40.50
41304;DHT22;51002;51.462;7.218;2023-05-17T13:47:50;16.20;39.10
41304;DHT22;51002;51.462;7.218;2023-05-17T13:50:18;16.10;40.90
41304;DHT22;51002;51.462;7.218;2023-05-17T13:52:45;15.80;40.50
41304;DHT22;51002;51.462;7.218;2023-05-17T13:55:13;16.00;43.30
41304;DHT22;51002;51.462;7.218;2023-05-17T13:57:39;16.00;44.70
41304;DHT22;51002;51.462;7.218;2023-05-17T14:00:04;16.00;40.70
41304;DHT22;51002;51.462;7.218;2023-05-17T14:02:31;16.20;42.20
41304;DHT22;51002;51.462;7.218;2023-05-17T14:04:56;16.50;40.90
41304;DHT22;51002;51.462;7.218;2023-05-17T14:07:22;16.60;41.80
41304;DHT22;51002;51.462;7.218;2023-05-17T14:09:47;16.50;42.40
41304;DHT22;51002;51.462;7.218;2023-05-17T14:12:13;16.50;42.00
41304;DHT22;51002;51.462;7.218;2023-05-17T14:14:41;16.30;42.80
41304;DHT22;51002;51.462;7.218;2023-05-17T14:17:06;16.30;41.20
41304;DHT22;51002;51.462;7.218;2023-05-17T14:19:32;16.20;46.70
41304;DHT22;51002;51.462;7.218;2023-05-17T14:21:57;16.10;40.70
41304;DHT22;51002;51.462;7.218;2023-05-17T14:24:23;16.20;42.20
41304;DHT22;51002;51.462;7.218;2023-05-17T14:26:48;16.50;42.50
41304;DHT22;51002;51.462;7.218;2023-05-17T14:29:13;16.60;41.80
41304;DHT22;51002;51.462;7.218;2023-05-17T14:31:39;16.80;43.60
41304;DHT22;51002;51.462;7.218;2023-05-17T14:34:07;16.90;43.90
41304;DHT22;51002;51.462;7.218;2023-05-17T14:36:32;16.70;39.80
41304;DHT22;51002;51.462;7.218;2023-05-17T14:39:00;16.70;41.40
41304;DHT22;51002;51.462;7.218;2023-05-17T14:41:26;16.50;42.70
41304;DHT22;51002;51.462;7.218;2023-05-17T14:43:51;16.30;41.70
41304;DHT22;51002;51.462;7.218;2023-05-17T14:46:17;16.40;44.30
41304;DHT22;51002;51.462;7.218;2023-05-17T14:48:43;16.20;44.20
41304;DHT22;51002;51.462;7.218;2023-05-17T14:51:09;16.10;44.00
41304;DHT22;51002;51.462;7.218;2023-05-17T14:53:37;15.90;41.30
41304;DHT22;51002;51.462;7.218;2023-05-17T14:56:05;15.90;44.90
41304;DHT22;51002;51.462;7.218;2023-05-17T14:58:30;16.10;42.90
41304;DHT22;51002;51.462;7.218;2023-05-17T15:00:58;16.00;42.10
41304;DHT22;51002;51.462;7.218;2023-05-17T15:03:26;16.10;43.00
41304;DHT22;51002;51.462;7.218;2023-05-17T15:05:52;16.00;40.80
41304;DHT22;51002;51.462;7.218;2023-05-17T15:08:17;16.10;47.10
41304;DHT22;51002;51.462;7.218;2023-05-17T15:10:43;16.10;43.00
41304;DHT22;51002;51.462;7.218;2023-05-17T15:13:11;16.10;43.50
41304;DHT22;51002;51.462;7.218;2023-05-17T15:15:38;16.00;41.30
41304;DHT22;51002;51.462;7.218;2023-05-17T15:18:04;15.80;40.90
41304;DHT22;51002;51.462;7.218;2023-05-17T15:20:30;15.70;41.00
41304;DHT22;51002;51.462;7.218;2023-05-17T15:22:58;15.90;41.40
41304;DHT22;51002;51.462;7.218;2023-05-17T15:25:24;16.10;42.90
41304;DHT22;51002;51.462;7.218;2023-05-17T15:27:49;16.10;42.80
41304;DHT22;51002;51.462;7.218;2023-05-17T15:30:15;16.00;43.30
41304;DHT22;51002;51.462;7.218;2023-05-17T15:32:41;16.00;42.30
41304;DHT22;51002;51.462;7.218;2023-05-17T15:35:06;15.90;42.00
41304;DHT22;51002;51.462;7.218;2023-05-17T15:37:35;15.80;43.10
41304;DHT22;51002;51.462;7.218;2023-05-17T15:40:07;15.90;48.00
41304;DHT22;51002;51.462;7.218;2023-05-17T15:42:33;15.80;46.00
41304;DHT22;51002;51.462;7.218;2023-05-17T15:44:59;15.90;45.70